createdAt,value
2019-02-21T00:01:51.874Z,6.00
2019-02-21T00:04:22.542Z,6.00
2019-02-21T00:06:53.577Z,6.00
2019-02-21T00:09:24.346Z,6.00
2019-02-21T00:11:55.072Z,6.00
2019-02-21T00:14:25.804Z,6.10
2019-02-21T00:16:56.466Z,6.10
2019-02-21T00:19:27.168Z,6.10
2019-02-21T00:21:58.244Z,6.10
2019-02-21T00:24:28.964Z,6.10
2019-02-21T00:26:59.800Z,6.10
2019-02-21T00:29:30.467Z,6.10
2019-02-21T00:32:01.207Z,6.00
2019-02-21T00:34:31.856Z,6.00
2019-02-21T00:37:03.200Z,5.90
2019-02-21T00:39:33.914Z,5.90
2019-02-21T00:42:04.569Z,5.80
2019-02-21T00:44:35.317Z,5.70
2019-02-21T00:47:05.951Z,5.70
2019-02-21T00:49:36.627Z,5.60
2019-02-21T00:52:07.473Z,5.50
2019-02-21T00:54:38.519Z,5.40
2019-02-21T00:57:09.386Z,5.40
2019-02-21T00:59:40.064Z,5.40
2019-02-21T01:02:10.740Z,5.30
2019-02-21T01:04:41.503Z,5.20
2019-02-21T01:07:12.187Z,5.30
2019-02-21T01:09:43.672Z,5.20
2019-02-21T01:12:14.646Z,5.20
2019-02-21T01:14:45.306Z,5.20
2019-02-21T01:17:15.957Z,5.10
2019-02-21T01:19:46.656Z,5.10
2019-02-21T01:22:17.345Z,5.10
2019-02-21T01:24:47.942Z,5.10
2019-02-21T01:27:18.793Z,5.10
2019-02-21T01:29:49.473Z,5.20
2019-02-21T01:32:20.442Z,5.20
2019-02-21T01:34:51.159Z,5.20
2019-02-21T01:37:22.028Z,5.20
2019-02-21T01:39:52.695Z,5.20
2019-02-21T01:42:23.829Z,5.30
2019-02-21T01:44:54.575Z,5.20
2019-02-21T01:47:25.408Z,5.20
2019-02-21T01:49:56.113Z,5.30
2019-02-21T01:52:26.886Z,5.30
2019-02-21T01:54:58.063Z,5.20
2019-02-21T01:57:28.720Z,5.10
2019-02-21T01:59:59.413Z,5.10
2019-02-21T02:02:30.227Z,5.00
2019-02-21T02:05:01.085Z,5.00
2019-02-21T02:07:31.742Z,4.90
2019-02-21T02:10:03.353Z,4.90
2019-02-21T02:12:34.028Z,4.80
2019-02-21T02:15:05.530Z,4.90
2019-02-21T02:17:36.207Z,4.80
2019-02-21T02:20:07.040Z,4.80
2019-02-21T02:22:37.780Z,4.90
2019-02-21T02:25:27.535Z,4.90
2019-02-21T02:27:58.522Z,4.90
2019-02-21T02:30:29.174Z,4.90
2019-02-21T02:32:59.854Z,5.00
2019-02-21T02:35:30.785Z,5.10
2019-02-21T02:38:01.496Z,5.10
2019-02-21T02:40:33.025Z,5.10
2019-02-21T02:43:04.342Z,5.10
2019-02-21T02:45:35.598Z,5.10
2019-02-21T02:48:06.446Z,5.10
2019-02-21T02:50:37.161Z,5.20
2019-02-21T02:53:07.855Z,5.20
2019-02-21T02:55:38.483Z,5.20
2019-02-21T02:58:09.167Z,5.20
2019-02-21T03:00:40.428Z,5.20
2019-02-21T03:03:11.435Z,5.20
2019-02-21T03:05:42.078Z,5.10
2019-02-21T03:08:12.813Z,5.10
2019-02-21T03:10:43.507Z,5.10
2019-02-21T03:13:14.225Z,5.10
2019-02-21T03:15:45.033Z,5.10
2019-02-21T03:18:15.678Z,5.10
2019-02-21T03:20:46.316Z,5.20
2019-02-21T03:23:16.987Z,5.20
2019-02-21T03:25:47.762Z,5.20
2019-02-21T03:28:18.466Z,5.20
2019-02-21T03:30:49.136Z,5.20
2019-02-21T03:33:19.767Z,5.20
2019-02-21T03:35:50.619Z,5.30
2019-02-21T03:38:21.427Z,5.20
2019-02-21T03:40:52.130Z,5.20
2019-02-21T03:43:22.902Z,5.20
2019-02-21T03:45:53.589Z,5.10
2019-02-21T03:48:24.229Z,5.10
2019-02-21T03:50:55.005Z,5.10
2019-02-21T03:53:25.687Z,5.10
2019-02-21T03:55:56.464Z,5.10
2019-02-21T03:58:27.670Z,5.10
2019-02-21T04:00:59.057Z,5.10
2019-02-21T04:03:29.773Z,5.10
2019-02-21T04:06:00.417Z,5.00
2019-02-21T04:08:31.104Z,5.10
2019-02-21T04:11:01.759Z,5.10
2019-02-21T04:13:32.434Z,5.10
2019-02-21T04:16:04.012Z,5.10
2019-02-21T04:18:34.700Z,5.10
2019-02-21T04:21:05.327Z,5.00
2019-02-21T04:23:36.227Z,5.00
2019-02-21T04:26:06.948Z,5.00
2019-02-21T04:28:38.208Z,5.00
2019-02-21T04:31:08.867Z,5.10
2019-02-21T04:33:40.477Z,5.00
2019-02-21T04:36:11.216Z,5.00
2019-02-21T04:38:42.395Z,5.00
2019-02-21T04:41:13.086Z,5.00
2019-02-21T04:43:45.548Z,4.90
2019-02-21T04:46:16.695Z,5.00
2019-02-21T04:48:47.496Z,5.00
2019-02-21T04:51:18.149Z,5.00
2019-02-21T04:53:48.809Z,4.90
2019-02-21T04:56:19.526Z,4.90
2019-02-21T04:58:50.163Z,4.90
2019-02-21T05:01:21.057Z,5.00
2019-02-21T05:03:51.786Z,5.00
2019-02-21T05:06:22.559Z,4.90
2019-02-21T05:08:53.200Z,4.80
2019-02-21T05:11:28.029Z,4.90
2019-02-21T05:13:58.802Z,4.90
2019-02-21T05:16:29.488Z,5.00
2019-02-21T05:19:00.633Z,5.00
2019-02-21T05:21:31.459Z,4.90
2019-02-21T05:24:02.153Z,5.00
2019-02-21T05:26:38.041Z,5.00
2019-02-21T05:29:10.854Z,5.00
2019-02-21T05:31:58.767Z,5.00
2019-02-21T05:34:43.112Z,5.00
2019-02-21T05:37:20.273Z,4.90
2019-02-21T05:40:28.767Z,5.00
2019-02-21T05:43:17.279Z,5.10
2019-02-21T05:46:09.910Z,5.00
2019-02-21T05:49:08.247Z,5.00
2019-02-21T05:51:46.982Z,5.00
2019-02-21T05:54:27.574Z,5.00
2019-02-21T05:57:14.483Z,5.10
2019-02-21T06:00:06.977Z,5.00
2019-02-21T06:03:03.247Z,5.00
2019-02-21T06:05:55.601Z,5.10
2019-02-21T06:08:39.607Z,5.10
2019-02-21T06:11:19.999Z,5.10
2019-02-21T06:14:08.090Z,5.00
2019-02-21T06:16:48.470Z,5.00
2019-02-21T06:19:27.207Z,5.00
2019-02-21T06:22:28.815Z,5.10
2019-02-21T06:25:17.416Z,5.10
2019-02-21T06:27:58.392Z,5.10
2019-02-21T06:30:36.776Z,5.10
2019-02-21T06:33:07.423Z,5.10
2019-02-21T06:35:38.599Z,5.10
2019-02-21T06:38:09.230Z,5.10
2019-02-21T06:40:40.517Z,5.20
2019-02-21T06:43:11.228Z,5.20
2019-02-21T06:45:43.565Z,5.20
2019-02-21T06:48:14.211Z,5.20
2019-02-21T06:50:44.838Z,5.20
2019-02-21T06:53:15.574Z,5.30
2019-02-21T06:55:46.299Z,5.30
2019-02-21T06:58:16.979Z,5.30
2019-02-21T07:00:47.655Z,5.30
2019-02-21T07:03:21.269Z,5.40
2019-02-21T07:05:51.924Z,5.40
2019-02-21T07:08:25.110Z,5.40
2019-02-21T07:11:05.462Z,5.40
2019-02-21T07:13:27.696Z,5.50
2019-02-21T07:15:59.177Z,5.60
2019-02-21T07:18:29.883Z,5.60
2019-02-21T07:21:00.675Z,5.60
2019-02-21T07:23:42.744Z,5.60
2019-02-21T07:26:06.888Z,5.80
2019-02-21T07:28:37.581Z,5.70
2019-02-21T07:31:08.242Z,5.80
2019-02-21T07:33:39.317Z,5.70
2019-02-21T07:36:11.049Z,5.70
2019-02-21T07:38:42.938Z,5.70
2019-02-21T07:41:13.720Z,5.60
2019-02-21T07:43:44.790Z,5.70
2019-02-21T07:46:15.495Z,5.70
2019-02-21T07:48:47.153Z,5.70
2019-02-21T07:51:17.834Z,5.80
2019-02-21T07:53:48.449Z,5.90
2019-02-21T07:56:19.151Z,5.90
2019-02-21T07:58:49.819Z,5.90
2019-02-21T08:01:20.499Z,5.80
2019-02-21T08:03:51.176Z,5.90
2019-02-21T08:06:21.844Z,5.80
2019-02-21T08:08:52.543Z,5.80
2019-02-21T08:11:23.333Z,5.90
2019-02-21T08:13:54.000Z,5.90
2019-02-21T08:16:24.680Z,5.80
2019-02-21T08:18:55.401Z,5.80
2019-02-21T08:21:26.688Z,5.70
2019-02-21T08:23:59.247Z,5.80
2019-02-21T08:26:29.830Z,5.80
2019-02-21T08:29:00.552Z,5.90
2019-02-21T08:31:31.401Z,5.90
2019-02-21T08:34:09.360Z,5.90
2019-02-21T08:36:40.644Z,6.00
2019-02-21T08:39:12.156Z,6.10
2019-02-21T08:41:42.807Z,6.00
2019-02-21T08:44:13.515Z,6.10
2019-02-21T08:46:45.119Z,6.20
2019-02-21T08:49:15.855Z,6.30
2019-02-21T08:51:46.855Z,6.40
2019-02-21T08:54:17.513Z,6.40
2019-02-21T08:56:48.808Z,6.50
2019-02-21T08:59:19.576Z,6.50
2019-02-21T09:01:50.657Z,6.40
2019-02-21T09:04:27.402Z,6.40
2019-02-21T09:06:53.994Z,6.40
2019-02-21T09:09:25.065Z,6.50
2019-02-21T09:11:55.761Z,6.50
2019-02-21T09:14:26.376Z,6.40
2019-02-21T09:16:57.087Z,6.40
2019-02-21T09:19:27.740Z,6.40
2019-02-21T09:21:58.773Z,6.40
2019-02-21T09:24:38.207Z,6.40
2019-02-21T09:27:01.849Z,6.40
2019-02-21T09:29:32.506Z,6.40
2019-02-21T09:32:03.167Z,6.50
2019-02-21T09:34:33.853Z,6.60
2019-02-21T09:37:05.527Z,6.70
2019-02-21T09:39:36.390Z,6.80
2019-02-21T09:42:07.030Z,6.90
2019-02-21T09:44:37.736Z,6.90
2019-02-21T09:47:08.544Z,6.80
2019-02-21T09:49:39.216Z,6.80
2019-02-21T09:52:09.861Z,6.80
2019-02-21T09:54:41.654Z,6.70
2019-02-21T09:57:13.482Z,6.70
2019-02-21T09:59:44.486Z,6.60
2019-02-21T10:02:15.123Z,6.60
2019-02-21T10:04:46.106Z,6.60
2019-02-21T10:07:16.785Z,6.60
2019-02-21T10:09:47.431Z,6.60
2019-02-21T10:12:18.099Z,6.60
2019-02-21T10:14:49.509Z,6.70
2019-02-21T10:17:20.252Z,6.80
2019-02-21T10:19:51.438Z,6.80
2019-02-21T10:22:22.109Z,6.90
2019-02-21T10:24:53.443Z,6.90
2019-02-21T10:27:24.083Z,6.90
2019-02-21T10:29:54.974Z,6.90
2019-02-21T10:32:25.635Z,6.80
2019-02-21T10:34:56.319Z,6.90
2019-02-21T10:37:26.996Z,6.90
2019-02-21T10:39:57.679Z,6.90
2019-02-21T10:42:28.306Z,6.90
2019-02-21T10:44:58.953Z,6.90
2019-02-21T10:47:29.630Z,7.00
2019-02-21T10:50:00.351Z,7.00
2019-02-21T10:52:31.041Z,7.10
2019-02-21T10:55:02.610Z,7.10
2019-02-21T10:57:33.278Z,7.20
2019-02-21T11:00:04.788Z,7.30
2019-02-21T11:02:35.523Z,7.30
2019-02-21T11:05:07.434Z,7.30
2019-02-21T11:07:38.305Z,7.20
2019-02-21T11:10:09.916Z,7.30
2019-02-21T11:12:41.783Z,7.30
2019-02-21T11:15:14.230Z,7.40
2019-02-21T11:17:45.032Z,7.40
2019-02-21T11:20:18.277Z,7.60
2019-02-21T11:22:50.035Z,7.70
2019-02-21T11:25:20.971Z,7.80
2019-02-21T11:27:51.888Z,7.80
2019-02-21T11:30:22.622Z,7.80
2019-02-21T11:33:12.333Z,7.80
2019-02-21T11:35:43.192Z,7.90
2019-02-21T11:38:13.903Z,8.00
2019-02-21T11:40:44.645Z,8.10
2019-02-21T11:43:15.295Z,8.30
2019-02-21T11:45:53.505Z,8.40
2019-02-21T11:48:18.423Z,8.40
2019-02-21T11:50:49.143Z,8.40
2019-02-21T11:53:19.820Z,8.50
2019-02-21T11:55:50.591Z,8.70
2019-02-21T11:58:21.232Z,8.70
2019-02-21T12:00:51.938Z,8.70
2019-02-21T12:03:23.084Z,8.50
2019-02-21T12:05:53.889Z,8.50
2019-02-21T12:08:24.633Z,8.60
2019-02-21T12:10:55.790Z,8.60
2019-02-21T12:13:26.541Z,8.80
2019-02-21T12:15:59.096Z,8.70
2019-02-21T12:18:29.819Z,8.60
2019-02-21T12:21:00.574Z,8.70
2019-02-21T12:23:31.315Z,8.90
2019-02-21T12:26:01.952Z,9.20
2019-02-21T12:28:32.642Z,9.30
2019-02-21T12:31:04.142Z,9.40
2019-02-21T12:33:34.800Z,9.50
2019-02-21T12:36:05.440Z,9.80
2019-02-21T12:38:36.137Z,9.90
2019-02-21T12:41:06.898Z,9.70
2019-02-21T12:43:37.817Z,9.60
2019-02-21T12:46:08.794Z,9.60
2019-02-21T12:48:40.711Z,9.50
2019-02-21T12:51:11.359Z,9.60
2019-02-21T12:53:42.529Z,9.60
2019-02-21T12:56:13.738Z,9.60
2019-02-21T12:58:45.311Z,9.70
2019-02-21T13:01:16.149Z,9.80
2019-02-21T13:03:48.804Z,9.80
2019-02-21T13:06:19.537Z,9.70
2019-02-21T13:08:50.200Z,9.60
2019-02-21T13:11:20.912Z,9.60
2019-02-21T13:13:51.709Z,9.70
2019-02-21T13:16:23.144Z,9.70
2019-02-21T13:18:53.826Z,9.80
2019-02-21T13:21:25.513Z,9.80
2019-02-21T13:23:56.183Z,9.80
2019-02-21T13:26:27.502Z,9.80
2019-02-21T13:28:58.414Z,9.80
2019-02-21T13:31:29.993Z,9.70
2019-02-21T13:34:01.221Z,9.70
2019-02-21T13:36:33.950Z,9.70
2019-02-21T13:39:05.687Z,9.80
2019-02-21T13:41:41.143Z,9.90
2019-02-21T13:44:15.473Z,10.00
2019-02-21T13:46:46.307Z,10.00
2019-02-21T13:49:17.097Z,10.10
2019-02-21T13:51:47.885Z,10.00
2019-02-21T13:54:18.562Z,9.90
2019-02-21T13:56:49.216Z,10.00
2019-02-21T13:59:19.927Z,10.00
2019-02-21T14:01:50.603Z,10.00
2019-02-21T14:04:21.330Z,10.10
2019-02-21T14:06:52.063Z,10.10
2019-02-21T14:09:24.496Z,10.10
2019-02-21T14:11:55.321Z,10.10
2019-02-21T14:14:26.194Z,10.10
2019-02-21T14:16:56.904Z,10.10
2019-02-21T14:19:27.608Z,10.10
2019-02-21T14:21:58.302Z,10.10
2019-02-21T14:24:36.893Z,10.10
2019-02-21T14:27:01.414Z,10.10
2019-02-21T14:29:39.156Z,10.10
2019-02-21T14:32:05.055Z,10.10
2019-02-21T14:34:37.154Z,10.10
2019-02-21T14:37:08.098Z,10.10
2019-02-21T14:39:39.080Z,10.00
2019-02-21T14:42:09.788Z,10.00
2019-02-21T14:44:40.597Z,10.00
2019-02-21T14:47:11.375Z,10.00
2019-02-21T14:49:42.120Z,10.00
2019-02-21T14:52:12.858Z,10.00
2019-02-21T14:54:45.951Z,10.00
2019-02-21T14:57:16.730Z,9.90
2019-02-21T14:59:47.440Z,9.90
2019-02-21T15:02:18.143Z,9.90
2019-02-21T15:04:48.849Z,9.90
2019-02-21T15:07:19.517Z,9.90
2019-02-21T15:09:50.198Z,9.90
2019-02-21T15:12:21.000Z,9.90
2019-02-21T15:14:51.651Z,9.90
2019-02-21T15:17:22.290Z,9.90
2019-02-21T15:19:52.985Z,9.90
2019-02-21T15:22:24.119Z,9.90
2019-02-21T15:24:54.867Z,9.90
2019-02-21T15:27:25.742Z,9.80
2019-02-21T15:29:57.435Z,9.70
2019-02-21T15:32:28.275Z,9.50
2019-02-21T15:34:58.927Z,9.40
2019-02-21T15:37:29.674Z,9.20
2019-02-21T15:40:01.102Z,9.20
2019-02-21T15:42:31.954Z,9.00
2019-02-21T15:45:02.655Z,9.00
2019-02-21T15:47:33.492Z,8.90
2019-02-21T15:50:04.445Z,8.80
2019-02-21T15:52:35.118Z,8.70
2019-02-21T15:55:12.409Z,8.70
2019-02-21T15:57:40.799Z,8.70
2019-02-21T16:00:15.102Z,8.60
2019-02-21T16:02:45.814Z,8.70
2019-02-21T16:05:18.063Z,8.60
2019-02-21T16:07:48.853Z,8.50
2019-02-21T16:10:21.585Z,8.40
2019-02-21T16:12:52.538Z,8.40
2019-02-21T16:15:23.805Z,8.30
2019-02-21T16:17:54.426Z,8.30
2019-02-21T16:20:25.129Z,8.20
2019-02-21T16:22:55.829Z,8.20
2019-02-21T16:25:26.586Z,8.10
2019-02-21T16:27:57.281Z,8.00
2019-02-21T16:30:28.049Z,8.00
2019-02-21T16:32:58.734Z,8.00
2019-02-21T16:35:29.462Z,7.90
2019-02-21T16:38:00.073Z,7.90
2019-02-21T16:40:30.765Z,7.90
2019-02-21T16:43:01.991Z,7.90
2019-02-21T16:45:42.921Z,7.90
2019-02-21T16:48:05.082Z,7.90
2019-02-21T16:50:36.228Z,7.80
2019-02-21T16:53:06.956Z,7.80
2019-02-21T16:55:37.731Z,7.80
2019-02-21T16:58:08.989Z,7.90
2019-02-21T17:00:52.459Z,7.90
2019-02-21T17:03:13.004Z,7.90
2019-02-21T17:05:43.667Z,7.90
2019-02-21T17:08:14.479Z,7.90
2019-02-21T17:10:45.166Z,7.80
2019-02-21T17:13:16.110Z,7.80
2019-02-21T17:15:47.805Z,7.80
2019-02-21T17:18:23.214Z,7.80
2019-02-21T17:20:53.865Z,7.80
2019-02-21T17:23:25.021Z,7.80
2019-02-21T17:25:55.652Z,7.80
2019-02-21T17:28:26.426Z,7.80
2019-02-21T17:30:57.341Z,7.80
2019-02-21T17:33:28.122Z,7.90
2019-02-21T17:35:58.866Z,7.90
2019-02-21T17:38:35.111Z,7.90
2019-02-21T17:41:09.039Z,7.90
2019-02-21T17:43:39.906Z,7.90
2019-02-21T17:46:10.930Z,7.90
2019-02-21T17:48:43.102Z,8.00
2019-02-21T17:51:13.857Z,7.90
2019-02-21T17:53:45.929Z,7.90
2019-02-21T17:56:16.908Z,7.90
2019-02-21T17:58:47.803Z,7.90
2019-02-21T18:01:19.145Z,8.00
2019-02-21T18:03:50.002Z,8.00
2019-02-21T18:06:21.205Z,8.00
2019-02-21T18:08:51.858Z,8.00
2019-02-21T18:11:23.107Z,8.00
2019-02-21T18:13:53.782Z,8.00
2019-02-21T18:16:24.498Z,8.00
2019-02-21T18:18:55.242Z,8.00
2019-02-21T18:21:26.610Z,8.10
2019-02-21T18:23:57.400Z,8.10
2019-02-21T18:26:28.057Z,8.00
2019-02-21T18:28:58.781Z,8.00
2019-02-21T18:31:29.797Z,8.10
2019-02-21T18:34:00.683Z,8.00
2019-02-21T18:36:31.305Z,7.90
2019-02-21T18:39:01.997Z,8.00
2019-02-21T18:41:32.741Z,7.90
2019-02-21T18:44:03.505Z,8.00
2019-02-21T18:46:34.179Z,8.00
2019-02-21T18:49:06.040Z,8.10
2019-02-21T18:51:36.955Z,8.00
2019-02-21T18:54:07.586Z,8.10
2019-02-21T18:56:38.325Z,8.10
2019-02-21T18:59:09.205Z,8.00
2019-02-21T19:01:39.989Z,7.90
2019-02-21T19:04:11.285Z,7.90
2019-02-21T19:06:42.859Z,7.90
2019-02-21T19:09:14.410Z,8.00
2019-02-21T19:11:45.214Z,8.00
2019-02-21T19:14:15.905Z,8.00
2019-02-21T19:16:46.622Z,8.00
2019-02-21T19:19:17.374Z,8.00
2019-02-21T19:21:50.174Z,8.10
2019-02-21T19:24:20.879Z,8.10
2019-02-21T19:26:51.613Z,8.10
2019-02-21T19:29:23.081Z,8.10
2019-02-21T19:31:55.035Z,8.00
2019-02-21T19:34:29.148Z,8.10
2019-02-21T19:36:59.929Z,8.10
2019-02-21T19:39:30.746Z,8.00
2019-02-21T19:42:01.476Z,8.10
2019-02-21T19:44:32.801Z,8.10
2019-02-21T19:47:03.762Z,8.10
2019-02-21T19:49:34.492Z,8.10
2019-02-21T19:52:06.382Z,8.10
2019-02-21T19:54:37.285Z,8.10
2019-02-21T19:57:09.807Z,8.10
2019-02-21T19:59:40.616Z,8.20
2019-02-21T20:02:14.339Z,8.20
2019-02-21T20:04:45.190Z,8.20
2019-02-21T20:07:16.744Z,8.20
2019-02-21T20:09:48.497Z,8.20
2019-02-21T20:12:19.255Z,8.30
2019-02-21T20:14:50.797Z,8.30
2019-02-21T20:17:21.814Z,8.30
2019-02-21T20:19:52.574Z,8.30
2019-02-21T20:22:23.309Z,8.40
2019-02-21T20:24:54.063Z,8.30
2019-02-21T20:27:25.385Z,8.40
2019-02-21T20:29:56.113Z,8.40
2019-02-21T20:32:27.564Z,8.40
2019-02-21T20:34:59.215Z,8.50
2019-02-21T20:37:30.421Z,8.50
2019-02-21T20:40:01.519Z,8.50
2019-02-21T20:42:32.573Z,8.60
2019-02-21T20:45:03.508Z,8.50
2019-02-21T20:47:34.137Z,8.50
2019-02-21T20:50:04.966Z,8.50
2019-02-21T20:52:35.685Z,8.60
2019-02-21T20:55:12.716Z,8.60
2019-02-21T20:57:44.420Z,8.60
2019-02-21T21:00:16.650Z,8.50
2019-02-21T21:02:48.325Z,8.60
2019-02-21T21:05:19.158Z,8.60
2019-02-21T21:07:50.674Z,8.60
2019-02-21T21:10:21.535Z,8.50
2019-02-21T21:12:52.269Z,8.60
2019-02-21T21:15:22.907Z,8.60
2019-02-21T21:17:53.810Z,8.60
2019-02-21T21:20:26.004Z,8.70
2019-02-21T21:22:56.910Z,8.60
2019-02-21T21:25:39.426Z,8.60
2019-02-21T21:28:22.472Z,8.60
2019-02-21T21:31:05.302Z,8.70
2019-02-21T21:33:49.389Z,8.60
2019-02-21T21:36:32.169Z,8.60
2019-02-21T21:39:06.077Z,8.60
2019-02-21T21:41:38.274Z,8.50
2019-02-21T21:44:09.014Z,8.60
2019-02-21T21:46:39.773Z,8.60
2019-02-21T21:49:10.910Z,8.60
2019-02-21T21:51:42.180Z,8.50
2019-02-21T21:54:13.256Z,8.60
2019-02-21T21:56:43.973Z,8.60
2019-02-21T21:59:14.600Z,8.50
2019-02-21T22:01:47.588Z,8.60
2019-02-21T22:04:17.832Z,8.50
2019-02-21T22:06:48.735Z,8.60
2019-02-21T22:09:19.453Z,8.50
2019-02-21T22:11:50.143Z,8.50
2019-02-21T22:14:20.800Z,8.60
2019-02-21T22:16:51.581Z,8.60
2019-02-21T22:19:22.337Z,8.60
2019-02-21T22:21:53.174Z,8.60
2019-02-21T22:24:25.699Z,8.60
2019-02-21T22:26:56.474Z,8.60
2019-02-21T22:29:27.199Z,8.50
2019-02-21T22:31:57.869Z,8.50
2019-02-21T22:34:28.540Z,8.60
2019-02-21T22:36:59.266Z,8.60
2019-02-21T22:39:29.989Z,8.60
2019-02-21T22:42:00.643Z,8.50
2019-02-21T22:44:31.335Z,8.50
2019-02-21T22:47:01.965Z,8.50
2019-02-21T22:49:33.050Z,8.60
2019-02-21T22:52:04.538Z,8.60
2019-02-21T22:54:35.776Z,8.50
2019-02-21T22:57:06.441Z,8.50
2019-02-21T22:59:37.334Z,8.50
2019-02-21T23:02:08.028Z,8.50
2019-02-21T23:05:06.131Z,8.50
2019-02-21T23:08:12.684Z,8.60
2019-02-21T23:10:43.328Z,8.60
2019-02-21T23:13:14.312Z,8.60
2019-02-21T23:15:45.285Z,8.60
2019-02-21T23:18:15.928Z,8.60
2019-02-21T23:20:46.627Z,8.60
2019-02-21T23:23:17.214Z,8.60
2019-02-21T23:25:47.987Z,8.60
2019-02-21T23:28:18.648Z,8.60
2019-02-21T23:30:49.242Z,8.60
2019-02-21T23:33:20.055Z,8.60
2019-02-21T23:35:50.803Z,8.60
2019-02-21T23:38:21.718Z,8.60
2019-02-21T23:40:52.407Z,8.60
2019-02-21T23:43:23.084Z,8.60
2019-02-21T23:45:53.939Z,8.60
2019-02-21T23:48:24.556Z,8.60
2019-02-21T23:50:55.404Z,8.60
2019-02-21T23:53:26.046Z,8.60
2019-02-21T23:55:56.848Z,8.60
2019-02-21T23:58:27.481Z,8.60
